Time;durP1;ratioP1;P1;durP2;ratioP2;P2;SDS_P1;SDS_P2;PMS_P1;PMS_P2;Temp;Humidity;BMP_temperature;BMP_pressure;BME280_temperature;BME280_humidity;BME280_pressure;Samples;Min_cycle;Max_cycle;Signal;HPM_P1;HPM_P2
2021/11/05 00:01:48;;;;;;;8.98;4.60;;;8.30;99.90;;;7.78;100.00;101898.47;4170557;28;20080;-66
2021/11/05 00:03:49;;;;;;;7.13;4.20;;;8.30;99.90;;;7.68;100.00;101900.91;4170337;28;20108;-66
2021/11/05 00:05:50;;;;;;;4.82;3.38;;;8.30;99.90;;;7.90;100.00;101916.00;4170496;28;20036;-66
2021/11/05 00:07:52;;;;;;;13.32;3.75;;;8.40;99.90;;;7.91;100.00;101924.72;4170744;28;20401;-66
2021/11/05 00:09:52;;;;;;;5.93;3.90;;;8.40;99.90;;;7.69;100.00;101923.63;4170833;28;20506;-66
2021/11/05 00:11:53;;;;;;;4.53;2.83;;;8.40;99.90;;;7.82;100.00;101914.88;4170537;28;20029;-66
2021/11/05 00:13:54;;;;;;;4.82;3.40;;;8.40;99.90;;;7.70;100.00;101920.06;4170421;28;20033;-66
2021/11/05 00:15:55;;;;;;;3.90;3.00;;;8.30;99.90;;;7.71;100.00;101923.50;4170471;28;20493;-66
2021/11/05 00:17:56;;;;;;;6.70;3.20;;;8.30;99.90;;;7.73;100.00;101919.84;4170236;28;20022;-66
2021/11/05 00:19:57;;;;;;;5.72;3.15;;;8.40;99.90;;;7.79;100.00;101902.81;4170470;28;20036;-66
2021/11/05 00:21:58;;;;;;;2.55;2.30;;;8.30;99.90;;;7.87;100.00;101913.59;4170321;28;20127;-66
2021/11/05 00:23:59;;;;;;;4.32;2.58;;;8.40;99.90;;;7.83;100.00;101914.75;4170393;28;20021;-66
2021/11/05 00:26:00;;;;;;;4.88;2.85;;;8.40;99.90;;;7.77;100.00;101923.06;4170343;28;20452;-66
2021/11/05 00:28:03;;;;;;;4.15;2.50;;;8.40;99.90;;;7.87;100.00;101916.22;4170298;28;20105;-66
2021/11/05 00:30:10;;;;;;;5.32;3.00;;;8.40;99.90;;;7.84;100.00;101915.59;4170141;28;20057;-66
2021/11/05 00:32:11;;;;;;;6.90;3.38;;;8.40;99.90;;;7.79;100.00;101924.63;4170110;28;20025;-67
2021/11/05 00:34:12;;;;;;;8.15;3.55;;;8.40;99.90;;;7.81;100.00;101916.66;4170234;28;20021;-66
2021/11/05 00:36:16;;;;;;;7.60;3.65;;;8.40;99.90;;;7.77;100.00;101917.81;4170118;28;20025;-66
2021/11/05 00:38:17;;;;;;;5.60;3.58;;;8.40;99.90;;;7.86;100.00;101924.19;4170087;28;20496;-66
2021/11/05 00:40:19;;;;;;;4.75;2.85;;;8.40;99.90;;;7.87;100.00;101913.59;4170217;28;20028;-66
2021/11/05 00:42:20;;;;;;;4.90;3.40;;;8.40;99.90;;;8.01;100.00;101921.31;4170280;28;20029;-66
2021/11/05 00:44:21;;;;;;;5.85;3.10;;;8.40;99.90;;;7.97;100.00;101933.00;4170171;28;20032;-66
2021/11/05 00:46:22;;;;;;;4.03;3.35;;;8.50;99.90;;;7.97;100.00;101932.16;4170043;28;20094;-66
2021/11/05 00:48:23;;;;;;;6.40;3.00;;;8.40;99.90;;;7.98;100.00;101925.94;4169959;28;20017;-67
2021/11/05 00:50:25;;;;;;;4.40;3.00;;;8.50;99.90;;;7.80;100.00;101926.31;4170143;28;20036;-67
2021/11/05 00:52:26;;;;;;;6.30;3.85;;;8.50;99.90;;;7.90;100.00;101923.88;4170074;28;20030;-66
2021/11/05 00:54:27;;;;;;;6.20;3.25;;;8.40;99.90;;;7.76;100.00;101919.59;4169968;28;20456;-66
2021/11/05 00:56:28;;;;;;;7.40;3.80;;;8.40;99.90;;;7.74;100.00;101926.75;4169980;28;20022;-66
2021/11/05 00:58:28;;;;;;;6.07;3.10;;;8.40;99.90;;;7.77;100.00;101912.56;4170000;28;20034;-66
2021/11/05 01:00:32;;;;;;;7.72;3.63;;;8.40;99.90;;;7.81;100.00;101919.28;4170050;28;20067;-66
2021/11/05 01:02:33;;;;;;;9.75;3.25;;;8.40;99.90;;;7.80;100.00;101915.81;4169262;28;20398;-66
2021/11/05 01:04:34;;;;;;;4.03;2.97;;;8.30;99.90;;;7.69;100.00;101915.75;4168913;28;20032;-66
2021/11/05 01:06:35;;;;;;;3.95;3.17;;;8.30;99.90;;;7.81;100.00;101911.41;4169906;28;20029;-66
2021/11/05 01:08:36;;;;;;;6.25;4.00;;;8.30;99.90;;;7.69;100.00;101914.91;4169842;28;20040;-66
2021/11/05 01:10:37;;;;;;;6.70;3.10;;;8.30;99.90;;;7.60;100.00;101918.16;4169666;28;20473;-66
2021/11/05 01:12:38;;;;;;;4.57;3.03;;;8.30;99.90;;;7.69;100.00;101915.75;4169805;28;20028;-66
2021/11/05 01:14:39;;;;;;;4.00;3.08;;;8.30;99.90;;;7.63;100.00;101912.72;4169824;28;20056;-66
2021/11/05 01:16:40;;;;;;;4.03;3.17;;;8.20;99.90;;;7.71;100.00;101915.63;4169744;28;20045;-66
2021/11/05 01:18:42;;;;;;;5.50;3.50;;;8.20;99.90;;;7.59;100.00;101912.06;4169385;28;20515;-66
2021/11/05 01:20:43;;;;;;;5.95;3.35;;;8.10;99.90;;;7.64;100.00;101927.53;4169704;28;20029;-66
2021/11/05 01:22:44;;;;;;;7.88;3.85;;;8.10;99.90;;;7.72;100.00;101922.56;4169678;28;20112;-66
2021/11/05 01:24:46;;;;;;;7.22;3.10;;;8.10;99.90;;;7.60;100.00;101926.06;4169582;28;20432;-66
2021/11/05 01:26:47;;;;;;;8.10;3.38;;;8.00;99.90;;;7.58;100.00;101927.94;4169707;28;20029;-66
2021/11/05 01:28:48;;;;;;;8.02;3.50;;;8.00;99.90;;;7.51;100.00;101919.66;4169466;28;20061;-66
2021/11/05 01:30:49;;;;;;;7.43;3.85;;;8.00;99.90;;;7.45;100.00;101921.88;4169483;28;20087;-66
2021/11/05 01:32:50;;;;;;;17.08;4.18;;;7.90;99.90;;;7.53;100.00;101923.00;4169141;28;20029;-66
2021/11/05 01:34:52;;;;;;;5.55;3.70;;;7.90;99.90;;;7.42;100.00;101914.22;4169258;28;20029;-66
2021/11/05 01:36:52;;;;;;;5.63;3.38;;;7.90;99.90;;;7.37;100.00;101919.78;4169409;28;20501;-66
2021/11/05 01:38:53;;;;;;;7.47;3.72;;;7.80;99.90;;;7.36;100.00;101923.34;4169277;28;20026;-66
2021/11/05 01:40:54;;;;;;;6.45;3.30;;;7.80;99.90;;;7.30;100.00;101926.41;4169302;28;20129;-66
2021/11/05 01:43:00;;;;;;;4.30;3.63;;;7.70;99.90;;;7.19;100.00;101928.94;4169220;28;20033;-66
2021/11/05 01:45:03;;;;;;;5.95;3.97;;;7.60;99.90;;;7.25;100.00;101931.13;4169232;28;20064;-67
2021/11/05 01:47:04;;;;;;;6.10;3.85;;;7.60;99.90;;;7.07;100.00;101922.75;4169009;28;20075;-66
2021/11/05 01:49:05;;;;;;;6.60;3.70;;;7.50;99.90;;;7.13;100.00;101921.47;4169187;28;20059;-67
2021/11/05 01:51:06;;;;;;;4.63;3.50;;;7.50;99.90;;;7.07;100.00;101912.25;4169068;28;20033;-66
2021/11/05 01:53:08;;;;;;;6.25;3.75;;;7.50;99.90;;;7.09;100.00;101925.25;4167708;28;20036;-67
2021/11/05 01:55:11;;;;;;;4.78;3.78;;;7.40;99.90;;;6.90;100.00;101896.81;4158234;28;20030;-66
2021/11/05 01:57:12;;;;;;;8.38;3.58;;;7.40;99.90;;;6.97;100.00;101926.94;4168729;28;20017;-66
2021/11/05 01:59:23;;;;;;;6.50;3.70;;;7.40;99.90;;;6.92;100.00;101922.94;4168993;28;20045;-66
2021/11/05 02:01:24;;;;;;;6.85;3.85;;;7.30;99.90;;;6.90;100.00;101930.09;4168762;28;20080;-66
2021/11/05 02:03:25;;;;;;;7.28;4.03;;;7.30;99.90;;;6.84;100.00;101922.63;4168649;28;20405;-66
2021/11/05 02:05:26;;;;;;;7.00;4.10;;;7.20;99.90;;;6.89;100.00;101936.25;4168888;28;20057;-66
2021/11/05 02:07:31;;;;;;;5.03;3.78;;;7.20;99.90;;;6.73;100.00;101931.19;4168800;28;20033;-66
2021/11/05 02:09:34;;;;;;;5.13;4.63;;;7.20;99.90;;;6.67;100.00;101936.84;4169025;28;20037;-66
2021/11/05 02:11:36;;;;;;;8.68;4.03;;;7.10;99.90;;;6.56;100.00;101934.94;4167657;28;20030;-66
2021/11/05 02:13:41;;;;;;;6.25;4.03;;;7.00;99.90;;;6.63;100.00;101932.78;4162660;28;20421;-66
2021/11/05 02:15:42;;;;;;;7.38;4.03;;;7.00;99.90;;;6.69;100.00;101925.31;4165917;28;20037;-66
2021/11/05 02:17:45;;;;;;;6.45;3.92;;;7.00;99.90;;;6.62;100.00;101929.31;4168605;28;20052;-66
2021/11/05 02:19:46;;;;;;;11.18;5.45;;;7.10;99.90;;;6.65;100.00;101934.34;4168720;28;20032;-66
2021/11/05 02:21:49;;;;;;;5.68;4.20;;;7.00;99.90;;;6.63;100.00;101933.59;4168890;28;20384;-66
2021/11/05 02:23:50;;;;;;;8.13;4.23;;;6.90;99.90;;;6.60;100.00;101928.53;4168623;28;20075;-66
2021/11/05 02:25:51;;;;;;;10.88;4.70;;;7.00;99.90;;;6.58;100.00;101929.59;4168723;28;20029;-66
2021/11/05 02:27:54;;;;;;;6.72;4.68;;;6.90;99.90;;;6.47;100.00;101911.13;4168528;28;20045;-66
2021/11/05 02:29:56;;;;;;;7.20;4.80;;;6.90;99.90;;;6.53;100.00;101914.19;4168581;28;20439;-66
2021/11/05 02:31:57;;;;;;;7.95;4.43;;;6.90;99.90;;;6.49;100.00;101922.34;4168279;28;20400;-66
2021/11/05 02:33:59;;;;;;;7.97;5.00;;;6.90;99.90;;;6.48;100.00;101924.09;4168543;28;20029;-66
2021/11/05 02:36:00;;;;;;;6.63;4.50;;;6.80;99.90;;;6.49;100.00;101922.34;4168601;28;20116;-66
2021/11/05 02:38:02;;;;;;;8.68;4.68;;;6.80;99.90;;;6.54;100.00;101931.56;4168460;28;20040;-66
2021/11/05 02:40:04;;;;;;;7.10;4.78;;;6.80;99.90;;;6.52;100.00;101928.22;4168230;28;20388;-66
2021/11/05 02:42:05;;;;;;;5.18;4.20;;;6.80;99.90;;;6.41;100.00;101917.59;4168442;28;20512;-66
2021/11/05 02:44:06;;;;;;;6.00;5.07;;;6.80;99.90;;;6.28;100.00;101924.56;4168584;28;20026;-66
2021/11/05 02:46:07;;;;;;;5.75;4.15;;;6.70;99.90;;;6.19;100.00;101925.16;4168642;28;20105;-66
2021/11/05 02:48:08;;;;;;;7.55;5.15;;;6.60;99.90;;;6.10;100.00;101924.00;4167987;28;20060;-66
2021/11/05 02:50:16;;;;;;;6.93;4.60;;;6.60;99.90;;;6.01;100.00;101919.34;4168420;28;20025;-66
2021/11/05 02:52:18;;;;;;;9.80;4.28;;;6.60;99.90;;;6.12;100.00;101929.97;4168460;28;20033;-66
2021/11/05 02:54:19;;;;;;;5.22;4.63;;;6.50;99.90;;;5.95;100.00;101922.34;4168394;28;20031;-66
2021/11/05 02:56:20;;;;;;;7.28;4.60;;;6.50;99.90;;;5.99;100.00;101933.47;4168190;28;20069;-66
2021/11/05 02:58:21;;;;;;;8.15;4.45;;;6.50;99.90;;;5.88;100.00;101930.69;4168412;28;20026;-66
2021/11/05 03:00:22;;;;;;;6.65;4.38;;;6.40;99.90;;;5.91;100.00;101926.09;4168387;28;20401;-66
2021/11/05 03:02:24;;;;;;;7.47;4.30;;;6.40;99.90;;;5.89;100.00;101927.13;4167768;28;20049;-66
2021/11/05 03:04:25;;;;;;;6.65;4.05;;;6.40;99.90;;;5.93;100.00;101936.47;4168162;28;20116;-66
2021/11/05 03:06:26;;;;;;;5.47;4.75;;;6.30;99.90;;;6.03;100.00;101934.97;4168437;28;20407;-66
2021/11/05 03:08:27;;;;;;;6.57;3.67;;;6.40;99.90;;;5.92;100.00;101933.00;4168320;28;20053;-66
2021/11/05 03:10:28;;;;;;;6.68;3.80;;;6.30;99.90;;;5.87;100.00;101936.88;4168478;28;20381;-66
2021/11/05 03:12:29;;;;;;;5.22;4.80;;;6.30;99.90;;;5.83;100.00;101923.09;4168116;28;20025;-66
2021/11/05 03:14:30;;;;;;;9.50;4.63;;;6.30;99.90;;;5.89;100.00;101942.84;4168287;28;20061;-66
2021/11/05 03:16:32;;;;;;;6.00;4.55;;;6.30;99.90;;;5.76;100.00;101936.69;4168166;28;20142;-66
2021/11/05 03:18:35;;;;;;;5.78;3.72;;;6.20;99.90;;;5.78;100.00;101937.41;4168070;28;20026;-66
2021/11/05 03:20:37;;;;;;;7.50;3.95;;;6.30;99.90;;;5.90;100.00;101947.16;4168239;28;20104;-66
2021/11/05 03:22:38;;;;;;;5.82;3.38;;;6.30;99.90;;;5.89;100.00;101954.16;4168427;28;20030;-66
2021/11/05 03:24:39;;;;;;;4.72;4.22;;;6.30;99.90;;;5.85;100.00;101951.81;4168188;28;20036;-66
2021/11/05 03:26:40;;;;;;;5.65;3.90;;;6.30;99.90;;;5.55;100.00;101944.91;4168227;28;20022;-66
2021/11/05 03:28:41;;;;;;;10.15;5.13;;;6.30;99.90;;;5.42;100.00;101951.84;4169706;28;20539;-66
2021/11/05 03:30:42;;;;;;;8.20;4.03;;;6.20;99.90;;;5.45;100.00;101951.66;4171474;28;20033;-66
2021/11/05 03:32:43;;;;;;;5.38;4.18;;;6.10;99.90;;;5.49;100.00;101950.53;4171196;28;20033;-66
2021/11/05 03:34:44;;;;;;;8.00;3.80;;;6.00;99.90;;;5.66;100.00;101949.50;4171415;28;20505;-66
2021/11/05 03:36:45;;;;;;;8.50;3.70;;;6.10;99.90;;;5.78;100.00;101955.72;4171128;28;20103;-66
2021/11/05 03:38:46;;;;;;;6.13;3.80;;;6.00;99.90;;;5.80;100.00;101964.31;4171252;28;20021;-66
2021/11/05 03:40:47;;;;;;;7.63;4.07;;;6.10;99.90;;;5.81;100.00;101959.00;4171346;28;20060;-66
2021/11/05 03:42:49;;;;;;;6.78;4.18;;;6.00;99.90;;;5.70;100.00;101956.22;4171332;28;20031;-66
2021/11/05 03:44:49;;;;;;;6.97;4.75;;;6.10;99.90;;;5.66;100.00;101962.56;4171003;28;20393;-66
2021/11/05 03:46:51;;;;;;;5.55;4.28;;;6.10;99.90;;;5.51;100.00;101956.50;4171065;28;20029;-66
2021/11/05 03:48:52;;;;;;;6.00;4.25;;;6.00;99.90;;;5.47;100.00;101964.63;4171093;28;20029;-66
2021/11/05 03:50:53;;;;;;;6.90;4.45;;;5.90;99.90;;;5.43;100.00;101961.38;4171013;28;20036;-66
2021/11/05 03:52:53;;;;;;;6.07;4.35;;;6.00;99.90;;;5.41;100.00;101962.38;4171002;28;20033;-66
2021/11/05 03:54:54;;;;;;;7.25;4.32;;;5.90;99.90;;;5.37;100.00;101967.00;4171200;28;20116;-66
2021/11/05 03:56:55;;;;;;;6.93;3.70;;;5.90;99.90;;;5.33;100.00;101968.09;4170751;28;20030;-66
2021/11/05 03:58:56;;;;;;;5.45;3.80;;;5.90;99.90;;;5.38;100.00;101968.66;4170888;28;20053;-66
2021/11/05 04:00:58;;;;;;;8.57;3.90;;;5.90;99.90;;;5.52;100.00;101962.59;4170514;28;20440;-66
2021/11/05 04:02:59;;;;;;;7.53;4.15;;;5.80;99.90;;;5.68;100.00;101989.50;4170627;28;20059;-66
2021/11/05 04:05:00;;;;;;;5.57;4.55;;;6.00;99.90;;;5.78;100.00;101988.00;4170950;28;20064;-66
2021/11/05 04:07:01;;;;;;;5.85;4.10;;;6.00;99.90;;;5.88;100.00;101983.91;4170746;28;20052;-66
2021/11/05 04:09:03;;;;;;;6.20;4.20;;;6.20;99.90;;;5.72;100.00;101992.78;4170622;28;20033;-66
2021/11/05 04:11:04;;;;;;;4.32;3.55;;;6.20;99.90;;;5.76;100.00;101992.50;4170892;28;20389;-66
2021/11/05 04:13:05;;;;;;;6.18;3.90;;;6.30;99.90;;;5.79;100.00;101996.69;4170969;28;20025;-66
2021/11/05 04:15:08;;;;;;;8.32;4.07;;;6.30;99.90;;;5.76;100.00;101986.41;4170700;28;20033;-66
2021/11/05 04:17:09;;;;;;;5.20;3.60;;;6.30;99.90;;;5.79;100.00;101997.56;4170226;28;20064;-66
2021/11/05 04:19:10;;;;;;;5.07;4.05;;;6.40;99.90;;;5.67;100.00;102005.31;4170890;28;20409;-66
2021/11/05 04:21:12;;;;;;;5.75;4.25;;;6.40;99.90;;;5.73;100.00;102012.78;4170857;28;20037;-66
2021/11/05 04:23:16;;;;;;;9.65;3.88;;;6.40;99.90;;;5.81;100.00;102014.00;4170743;28;20030;-66
2021/11/05 04:25:17;;;;;;;5.72;3.78;;;6.40;99.90;;;5.85;100.00;102014.66;4170570;28;20362;-66
2021/11/05 04:27:18;;;;;;;5.25;3.53;;;6.40;99.90;;;5.83;100.00;102019.97;4170578;28;20044;-66
2021/11/05 04:29:19;;;;;;;7.50;3.85;;;6.50;99.90;;;5.85;100.00;102019.88;4170523;28;20030;-66
2021/11/05 04:31:20;;;;;;;4.88;3.97;;;6.50;99.90;;;6.00;100.00;102035.50;4170632;28;20037;-66
2021/11/05 04:33:22;;;;;;;4.70;3.40;;;6.50;99.90;;;6.13;100.00;102032.97;4170016;28;20034;-66
2021/11/05 04:35:23;;;;;;;5.43;3.88;;;6.70;99.90;;;6.42;100.00;102037.22;4170443;28;20034;-66
2021/11/05 04:37:24;;;;;;;4.53;3.50;;;6.70;99.90;;;6.38;100.00;102032.28;4170334;28;20033;-66
2021/11/05 04:39:26;;;;;;;5.15;3.97;;;6.80;99.90;;;6.38;100.00;102040.97;4170144;28;20021;-66
2021/11/05 04:41:27;;;;;;;6.15;3.30;;;6.90;99.90;;;6.38;100.00;102038.34;4170345;28;20022;-66
2021/11/05 04:43:28;;;;;;;7.00;4.22;;;6.90;99.90;;;6.35;100.00;102035.94;4169281;28;20489;-66
2021/11/05 04:45:29;;;;;;;5.00;3.55;;;7.00;99.90;;;6.35;100.00;102043.78;4160512;28;20036;-66
2021/11/05 04:47:30;;;;;;;4.70;3.47;;;6.90;99.90;;;6.35;100.00;102046.41;4169861;28;20080;-66
2021/11/05 04:49:31;;;;;;;4.57;3.20;;;6.90;99.90;;;6.23;100.00;102043.72;4170122;28;20048;-66
2021/11/05 04:51:32;;;;;;;5.50;4.07;;;6.80;99.90;;;6.17;100.00;102051.97;4170137;28;20389;-66
2021/11/05 04:53:33;;;;;;;5.72;3.80;;;6.80;99.90;;;6.00;100.00;102045.97;4170168;28;20029;-66
2021/11/05 04:55:34;;;;;;;6.45;4.07;;;6.70;99.90;;;6.03;100.00;102060.69;4170011;28;20036;-66
2021/11/05 04:57:35;;;;;;;3.80;3.38;;;6.70;99.90;;;6.02;100.00;102061.63;4170064;28;20033;-66
2021/11/05 04:59:37;;;;;;;5.80;3.70;;;6.50;99.90;;;5.89;100.00;102058.91;4170147;28;20030;-66
2021/11/05 05:01:38;;;;;;;4.32;3.53;;;6.50;99.90;;;5.89;100.00;102060.69;4169801;28;20575;-66
2021/11/05 05:03:39;;;;;;;8.63;4.00;;;6.40;99.90;;;5.88;100.00;102062.47;4169543;28;20030;-66
2021/11/05 05:05:40;;;;;;;8.20;4.90;;;6.30;99.90;;;5.66;100.00;102061.19;4169807;28;20615;-66
2021/11/05 05:07:42;;;;;;;4.43;3.88;;;6.30;99.90;;;5.68;100.00;102070.63;4169846;28;20072;-66
2021/11/05 05:09:43;;;;;;;6.63;4.80;;;6.20;99.90;;;5.88;100.00;102072.94;4169740;28;20088;-66
2021/11/05 05:11:46;;;;;;;6.70;4.18;;;6.30;99.90;;;5.83;100.00;102068.88;4169742;28;20051;-66
2021/11/05 05:13:47;;;;;;;7.38;3.72;;;6.20;99.90;;;5.79;100.00;102054.31;4169833;28;20096;-66
2021/11/05 05:15:49;;;;;;;5.63;3.30;;;6.20;99.90;;;5.71;100.00;102061.75;4169697;28;20034;-66
2021/11/05 05:17:50;;;;;;;7.22;4.47;;;6.70;99.90;;;5.61;100.00;102068.50;4169559;28;20388;-66
2021/11/05 05:19:51;;;;;;;4.20;3.75;;;6.20;99.90;;;5.53;100.00;102067.16;4169467;28;20094;-66
2021/11/05 05:21:52;;;;;;;6.03;4.18;;;6.10;99.90;;;5.53;100.00;102061.09;4169437;28;20025;-66
2021/11/05 05:23:53;;;;;;;6.63;4.35;;;6.10;99.90;;;5.56;100.00;102060.91;4169485;28;20036;-66
2021/11/05 05:25:54;;;;;;;5.57;4.43;;;6.00;99.90;;;5.32;100.00;102052.75;4169610;28;20017;-66
2021/11/05 05:27:55;;;;;;;6.72;3.95;;;6.00;99.90;;;5.19;100.00;102072.72;4169425;28;20029;-66
2021/11/05 05:29:57;;;;;;;11.73;4.60;;;5.90;99.90;;;5.32;100.00;102071.03;4169336;28;20504;-66
2021/11/05 05:31:58;;;;;;;7.35;4.32;;;5.90;99.90;;;5.47;100.00;102072.75;4168987;28;20029;-66
2021/11/05 05:33:59;;;;;;;4.85;4.32;;;5.80;99.90;;;5.38;100.00;102052.38;4169330;28;20024;-66
2021/11/05 05:36:00;;;;;;;5.80;3.65;;;5.90;99.90;;;5.45;100.00;102068.56;4169263;28;20025;-66
2021/11/05 05:38:02;;;;;;;5.47;3.83;;;5.90;99.90;;;5.48;100.00;102079.69;4169172;28;20497;-66
2021/11/05 05:40:05;;;;;;;9.25;4.78;;;5.90;99.90;;;5.39;100.00;102075.00;4169136;28;20041;-66
2021/11/05 05:42:06;;;;;;;11.52;4.80;;;5.80;99.90;;;5.30;100.00;102086.00;4169169;28;20048;-66
2021/11/05 05:44:07;;;;;;;6.55;4.43;;;5.80;99.90;;;5.25;100.00;102082.81;4169150;28;20026;-66
2021/11/05 05:46:09;;;;;;;5.03;4.43;;;5.80;99.90;;;5.49;100.00;102083.16;4169264;28;20397;-66
2021/11/05 05:48:10;;;;;;;8.38;4.30;;;5.80;99.90;;;5.55;100.00;102086.22;4168842;28;20026;-66
2021/11/05 05:50:14;;;;;;;9.55;5.22;;;5.90;99.90;;;5.72;100.00;102073.91;4168863;28;20045;-66
2021/11/05 05:52:16;;;;;;;17.27;7.57;;;5.90;99.90;;;5.67;100.00;102083.84;4168634;28;20022;-66
2021/11/05 05:54:17;;;;;;;19.33;10.90;;;5.90;99.90;;;5.62;100.00;102085.88;4168873;28;20029;-66
2021/11/05 05:56:17;;;;;;;16.48;8.40;;;6.00;99.90;;;5.58;100.00;102080.81;4168863;28;20032;-66
2021/11/05 05:58:18;;;;;;;9.25;6.80;;;5.90;99.90;;;5.60;100.00;102083.34;4169029;28;20029;-66
2021/11/05 06:00:20;;;;;;;6.82;5.28;;;6.00;99.90;;;5.64;100.00;102090.09;4169097;28;20108;-66
2021/11/05 06:02:21;;;;;;;7.82;4.78;;;6.00;99.90;;;5.55;100.00;102101.13;4168279;28;20089;-66
2021/11/05 06:04:26;;;;;;;5.88;4.32;;;5.90;99.90;;;5.48;100.00;102105.88;4168925;28;20036;-66
2021/11/05 06:06:30;;;;;;;;;;;5.90;99.90;;;5.50;100.00;102100.53;4169495;28;20033;-66
2021/11/05 06:08:31;;;;;;;7.25;4.65;;;5.90;99.90;;;5.34;100.00;102113.69;4168892;28;20299;-66
2021/11/05 06:10:33;;;;;;;6.75;3.78;;;5.80;99.90;;;5.32;100.00;102105.06;4168684;28;20079;-66
2021/11/05 06:12:34;;;;;;;10.95;4.50;;;5.80;99.90;;;5.32;100.00;102119.91;4167593;28;20030;-66
2021/11/05 06:14:35;;;;;;;8.57;5.00;;;5.80;99.90;;;5.21;100.00;102124.94;4158828;28;20032;-66
2021/11/05 06:16:36;;;;;;;8.30;4.30;;;5.70;99.90;;;5.01;100.00;102116.47;4168625;28;20029;-66
2021/11/05 06:18:37;;;;;;;12.55;5.03;;;5.70;99.90;;;4.83;100.00;102111.41;4168332;28;20111;-66
2021/11/05 06:20:38;;;;;;;7.10;4.22;;;5.60;99.90;;;4.80;100.00;102125.50;4168719;28;20049;-66
2021/11/05 06:22:39;;;;;;;10.82;5.60;;;5.50;99.90;;;4.89;100.00;102137.22;4168795;28;20025;-66
2021/11/05 06:24:41;;;;;;;5.22;4.72;;;5.40;99.90;;;4.88;100.00;102138.13;4168768;28;20108;-66
2021/11/05 06:26:41;;;;;;;6.75;5.00;;;5.40;99.90;;;4.83;100.00;102148.00;4168665;28;20046;-66
2021/11/05 06:28:42;;;;;;;9.90;3.70;;;5.40;99.90;;;4.81;100.00;102144.63;4168466;28;20040;-66
2021/11/05 06:30:43;;;;;;;6.63;3.72;;;5.30;99.90;;;4.79;100.00;102147.34;4168732;28;20037;-66
2021/11/05 06:32:44;;;;;;;5.20;4.78;;;5.30;99.90;;;4.82;100.00;102144.56;4168416;28;20459;-66
2021/11/05 06:34:45;;;;;;;4.82;3.85;;;5.30;99.90;;;4.87;100.00;102147.75;4168627;28;20087;-66
2021/11/05 06:36:46;;;;;;;5.63;3.75;;;5.30;99.90;;;4.83;100.00;102150.63;4168310;28;20393;-66
2021/11/05 06:38:49;;;;;;;5.13;4.68;;;5.30;99.90;;;4.89;100.00;102151.13;4168587;28;20029;-66
2021/11/05 06:40:50;;;;;;;5.93;3.67;;;5.30;99.90;;;4.90;100.00;102149.34;4168352;28;20017;-66
2021/11/05 06:42:51;;;;;;;4.22;3.83;;;5.30;99.90;;;4.79;100.00;102141.25;4168344;28;20041;-66
2021/11/05 06:44:53;;;;;;;5.82;3.95;;;5.30;99.90;;;4.89;100.00;102155.53;4168419;28;20389;-66
2021/11/05 06:46:54;;;;;;;6.22;4.05;;;5.30;99.90;;;4.95;100.00;102160.41;4168233;28;20033;-66
2021/11/05 06:48:55;;;;;;;7.82;4.00;;;5.30;99.90;;;5.08;100.00;102166.63;4168396;28;20048;-66
2021/11/05 06:50:56;;;;;;;8.00;5.22;;;5.40;99.90;;;5.06;100.00;102170.25;4168366;28;20033;-66
2021/11/05 06:52:57;;;;;;;7.95;3.95;;;5.40;99.90;;;5.09;100.00;102172.69;4168231;28;20034;-66
2021/11/05 06:54:58;;;;;;;5.80;4.10;;;5.60;99.90;;;4.86;100.00;102172.22;4168399;28;20090;-66
2021/11/05 06:56:59;;;;;;;7.28;4.00;;;5.40;99.90;;;4.87;100.00;102154.75;4168137;28;20022;-66
2021/11/05 06:59:01;;;;;;;4.22;3.58;;;5.20;99.90;;;4.85;100.00;102177.53;4168187;28;20022;-66
2021/11/05 07:01:06;;;;;;;5.32;3.92;;;5.40;99.90;;;4.93;100.00;102177.94;4167906;28;20615;-66
2021/11/05 07:03:07;;;;;;;6.05;3.90;;;5.30;99.90;;;4.93;100.00;102170.94;4168775;28;20430;-66
2021/11/05 07:05:15;;;;;;;7.35;4.03;;;5.30;99.90;;;4.84;100.00;102171.44;4171533;28;20026;-66
2021/11/05 07:07:16;;;;;;;8.38;4.35;;;5.40;99.90;;;4.98;100.00;102183.78;4171572;28;20030;-66
2021/11/05 07:09:17;;;;;;;4.55;3.92;;;5.30;99.90;;;4.81;100.00;102162.91;4171321;28;20021;-66
2021/11/05 07:11:18;;;;;;;4.07;3.40;;;5.40;99.90;;;4.95;100.00;102186.56;4171529;28;20037;-66
2021/11/05 07:13:20;;;;;;;5.70;3.70;;;5.40;99.90;;;4.89;100.00;102189.50;4171342;28;20053;-66
2021/11/05 07:15:21;;;;;;;5.03;3.78;;;5.40;99.90;;;4.78;100.00;102189.25;4171493;28;20108;-66
2021/11/05 07:17:22;;;;;;;5.25;3.40;;;5.40;99.90;;;4.75;100.00;102189.44;4170916;28;20033;-66
2021/11/05 07:19:25;;;;;;;6.82;4.45;;;5.30;99.90;;;4.71;100.00;102193.13;4171494;28;20021;-66
2021/11/05 07:21:26;;;;;;;5.15;3.90;;;5.30;99.90;;;4.83;100.00;102195.06;4171273;28;20105;-66
2021/11/05 07:23:27;;;;;;;6.55;3.70;;;5.30;99.90;;;4.83;100.00;102200.31;4171376;28;20025;-66
2021/11/05 07:25:29;;;;;;;3.60;3.30;;;5.30;99.90;;;4.78;100.00;102197.09;4171208;28;20025;-66
2021/11/05 07:27:29;;;;;;;6.03;3.47;;;5.40;99.90;;;4.81;100.00;102192.53;4171302;28;20034;-66
2021/11/05 07:29:32;;;;;;;4.00;3.60;;;5.30;99.90;;;4.97;100.00;102201.22;4171267;28;20243;-66
2021/11/05 07:31:33;;;;;;;6.57;3.47;;;5.30;99.90;;;5.11;100.00;102200.44;4171284;28;20075;-66
2021/11/05 07:33:34;;;;;;;6.80;4.68;;;5.40;99.90;;;5.12;100.00;102201.28;4170973;28;20040;-66
2021/11/05 07:35:35;;;;;;;5.68;4.38;;;5.50;99.90;;;5.16;100.00;102218.53;4171280;28;20030;-66
2021/11/05 07:37:36;;;;;;;6.00;4.57;;;5.50;99.90;;;4.94;100.00;102204.00;4171140;28;20029;-66
2021/11/05 07:39:37;;;;;;;6.45;4.68;;;5.60;99.90;;;5.08;100.00;102216.31;4171127;28;20393;-66
2021/11/05 07:41:38;;;;;;;6.65;4.85;;;5.60;99.90;;;5.02;100.00;102224.50;4171162;28;20017;-66
2021/11/05 07:43:39;;;;;;;7.15;3.85;;;5.60;99.90;;;4.98;100.00;102218.63;4171318;28;20049;-66
2021/11/05 07:45:41;;;;;;;4.97;4.40;;;5.60;99.90;;;5.04;100.00;102235.72;4171016;28;20440;-66
2021/11/05 07:47:43;;;;;;;7.97;5.55;;;5.60;99.90;;;5.12;100.00;102233.53;4170812;28;20033;-66
2021/11/05 07:49:44;;;;;;;7.45;4.57;;;5.60;99.90;;;5.19;100.00;102239.28;4170786;28;20025;-66
2021/11/05 07:51:46;;;;;;;7.63;5.03;;;5.70;99.90;;;5.17;100.00;102244.56;4170878;28;20025;-66
2021/11/05 07:53:47;;;;;;;6.00;3.88;;;5.80;99.90;;;5.12;100.00;102251.00;4170952;28;20111;-66
2021/11/05 07:55:48;;;;;;;6.43;4.57;;;5.70;99.90;;;5.08;100.00;102247.69;4170898;28;20032;-66
2021/11/05 07:57:49;;;;;;;10.63;5.30;;;5.70;99.90;;;5.21;100.00;102259.19;4170655;28;20029;-66
2021/11/05 07:59:50;;;;;;;12.65;9.07;;;5.70;99.90;;;5.24;100.00;102252.94;4170695;28;20409;-66
2021/11/05 08:01:51;;;;;;;20.58;12.48;;;5.70;99.90;;;5.27;100.00;102274.53;4170227;28;20128;-66
2021/11/05 08:03:52;;;;;;;16.23;10.57;;;5.70;99.90;;;5.32;100.00;102262.03;4170537;28;20095;-66
2021/11/05 08:05:53;;;;;;;14.88;9.35;;;5.80;99.90;;;5.33;100.00;102263.75;4170521;28;20032;-66
2021/11/05 08:07:54;;;;;;;15.02;8.77;;;5.80;99.90;;;5.38;100.00;102269.56;4170716;28;20530;-66
2021/11/05 08:09:55;;;;;;;14.30;8.82;;;5.90;99.90;;;5.36;100.00;102266.19;4170649;28;20028;-66
2021/11/05 08:11:56;;;;;;;10.63;7.72;;;6.30;99.90;;;5.44;100.00;102279.69;4170625;28;20033;-66
2021/11/05 08:13:58;;;;;;;9.32;7.10;;;5.90;99.90;;;5.54;100.00;102280.88;4169879;28;20029;-66
2021/11/05 08:15:59;;;;;;;8.23;5.97;;;6.00;99.90;;;5.67;100.00;102277.56;4170403;28;20033;-66
2021/11/05 08:18:00;;;;;;;7.60;5.70;;;6.10;99.90;;;5.64;100.00;102285.56;4170081;28;20113;-66
2021/11/05 08:20:01;;;;;;;6.45;4.82;;;6.10;99.90;;;5.69;100.00;102286.16;4170350;28;20059;-66
2021/11/05 08:22:03;;;;;;;6.07;4.80;;;6.20;99.90;;;5.74;100.00;102289.34;4170265;28;20477;-66
2021/11/05 08:24:05;;;;;;;5.15;4.22;;;6.20;99.90;;;5.77;100.00;102297.03;4170643;28;20053;-66
2021/11/05 08:26:07;;;;;;;9.48;4.95;;;6.30;99.90;;;5.80;100.00;102289.00;4170357;28;20036;-66
2021/11/05 08:28:08;;;;;;;6.40;4.00;;;6.40;99.90;;;5.94;100.00;102307.44;4170196;28;20416;-66
2021/11/05 08:30:20;;;;;;;5.97;4.68;;;6.50;99.90;;;6.00;100.00;102305.28;4170171;28;20018;-66